Linntown, Pennsylvania
Current Conditions -  °F | °C
As of 1:53 AM on Monday 22 Dec 2014 (Local Time) from KSEG Reporting Station
Haze Haze  
Wind Chill: 20°   Ceiling: Unl
Heat Index: 20°   Visibility: 5mi
Dew Point: 16°   Wind: 3mph
Humidity: 85%   Direction: 320°NW
Pressure: 30.33"   Gusts: NA
Location:  40.9885°N, 76.9787°W
Report Text: KSEG 220653Z AUTO 32003KT 5SM BR CLR M07/M09 A3033 RMK AO2 SLP276 I1000 T10671089
Loading
Personal Weather Stations






























Interactive Weather Map New forecast layout! Learn more

10-Day Weather Forecast

Advertisements
Track Severe Weather on mobile